Time;durP1;ratioP1;P1;durP2;ratioP2;P2;SDS_P1;SDS_P2;PMS_P1;PMS_P2;Temp;Humidity;BMP_temperature;BMP_pressure;BME280_temperature;BME280_humidity;BME280_pressure;Samples;Min_cycle;Max_cycle;Signal;HPM_P1;HPM_P2
2023/11/22 00:01:03;;;;;;;2.23;1.23;;;;;;;;;;6281135;28;20330;-70
2023/11/22 00:04:06;;;;;;;1.20;1.20;;;;;;;;;;6280578;28;20303;-70
2023/11/22 00:07:11;;;;;;;1.40;1.30;;;;;;;;;;6281187;28;20453;-70
2023/11/22 00:10:14;;;;;;;1.50;1.40;;;;;;;;;;6280775;28;20295;-70
2023/11/22 00:13:18;;;;;;;1.40;1.37;;;;;;;;;;6280816;28;20295;-70
2023/11/22 00:16:23;;;;;;;1.40;1.40;;;;;;;;;;6281333;28;20299;-69
2023/11/22 00:19:27;;;;;;;1.40;1.40;;;;;;;;;;6280658;28;20350;-71
2023/11/22 00:22:32;;;;;;;2.83;1.60;;;;;;;;;;6256238;28;20291;-70
2023/11/22 00:25:35;;;;;;;1.60;1.60;;;;;;;;;;6269113;28;20807;-70
2023/11/22 00:28:39;;;;;;;1.40;1.40;;;;;;;;;;6280690;28;20298;-71
2023/11/22 00:31:44;;;;;;;1.93;1.83;;;;;;;;;;6262128;28;20576;-71
2023/11/22 00:34:48;;;;;;;1.73;1.63;;;;;;;;;;6280294;28;20351;-71
2023/11/22 00:37:52;;;;;;;1.67;1.67;;;;;;;;;;6280015;28;20294;-69
2023/11/22 00:40:56;;;;;;;1.80;1.80;;;;;;;;;;6280122;28;20295;-70
2023/11/22 00:44:00;;;;;;;1.90;1.90;;;;;;;;;;6294879;28;20377;-70
2023/11/22 00:47:06;;;;;;;2.13;2.10;;;;;;;;;;6261347;28;20323;-72
2023/11/22 00:50:10;;;;;;;2.00;2.00;;;;;;;;;;6279772;28;20302;-73
2023/11/22 00:53:14;;;;;;;2.30;2.07;;;;;;;;;;6279952;28;20487;-70
2023/11/22 00:56:20;;;;;;;2.10;2.00;;;;;;;;;;6279948;28;20298;-71
2023/11/22 00:59:23;;;;;;;2.60;2.17;;;;;;;;;;6277761;28;20294;-70
2023/11/22 01:02:29;;;;;;;2.30;1.80;;;;;;;;;;6278659;28;20286;-70
2023/11/22 01:05:33;;;;;;;2.10;2.00;;;;;;;;;;6279504;28;20291;-70
2023/11/22 01:08:37;;;;;;;2.63;2.43;;;;;;;;;;6279151;28;20293;-70
2023/11/22 01:11:41;;;;;;;2.47;2.30;;;;;;;;;;6269492;28;20294;-71
2023/11/22 01:14:45;;;;;;;1.87;1.87;;;;;;;;;;6279357;28;20318;-69
2023/11/22 01:17:50;;;;;;;2.37;2.27;;;;;;;;;;6261362;28;20314;-69
2023/11/22 01:20:54;;;;;;;2.53;2.27;;;;;;;;;;6294725;28;20301;-70
2023/11/22 01:23:58;;;;;;;2.10;2.10;;;;;;;;;;6294644;28;20320;-71
2023/11/22 01:27:02;;;;;;;3.47;2.50;;;;;;;;;;6245190;28;20316;-71
2023/11/22 01:30:07;;;;;;;2.90;2.70;;;;;;;;;;6260717;28;20493;-71
2023/11/22 01:33:13;;;;;;;2.83;2.40;;;;;;;;;;6280073;28;20307;-70
2023/11/22 01:36:16;;;;;;;2.63;2.43;;;;;;;;;;6241235;28;20568;-71
2023/11/22 01:39:20;;;;;;;4.10;2.40;;;;;;;;;;6259024;28;20320;-71
2023/11/22 01:42:25;;;;;;;2.53;2.43;;;;;;;;;;6287687;28;20313;-69
2023/11/22 01:45:29;;;;;;;2.90;2.70;;;;;;;;;;6279135;28;20290;-71
2023/11/22 01:48:35;;;;;;;3.13;2.43;;;;;;;;;;6278689;28;20291;-71
2023/11/22 01:51:39;;;;;;;3.97;2.30;;;;;;;;;;6275046;28;20293;-70
2023/11/22 01:54:44;;;;;;;3.40;2.47;;;;;;;;;;6286333;28;20389;-71
2023/11/22 01:57:47;;;;;;;2.50;2.40;;;;;;;;;;6281221;28;20300;-72
2023/11/22 02:00:52;;;;;;;4.20;2.97;;;;;;;;;;6261450;28;20643;-72
2023/11/22 02:03:57;;;;;;;4.20;2.80;;;;;;;;;;6260082;28;20302;-70
2023/11/22 02:07:01;;;;;;;2.83;2.73;;;;;;;;;;6252570;28;20326;-70
2023/11/22 02:10:08;;;;;;;3.30;3.00;;;;;;;;;;6270113;28;20288;-70
2023/11/22 02:13:11;;;;;;;6.40;3.17;;;;;;;;;;6278085;28;20294;-70
2023/11/22 02:16:16;;;;;;;3.30;3.00;;;;;;;;;;6260068;28;20291;-71
2023/11/22 02:19:22;;;;;;;3.00;2.90;;;;;;;;;;6260365;28;20326;-70
2023/11/22 02:22:26;;;;;;;3.23;3.03;;;;;;;;;;6257841;28;20737;-70
2023/11/22 02:25:31;;;;;;;5.43;3.03;;;;;;;;;;6283383;28;20295;-70
2023/11/22 02:28:35;;;;;;;3.30;2.90;;;;;;;;;;6283502;28;20455;-71
2023/11/22 02:31:40;;;;;;;3.67;3.47;;;;;;;;;;6283128;28;20333;-69
2023/11/22 02:34:44;;;;;;;3.10;2.80;;;;;;;;;;6283100;28;20297;-70
2023/11/22 02:37:48;;;;;;;4.20;3.03;;;;;;;;;;6283340;28;20309;-71
2023/11/22 02:40:53;;;;;;;3.60;3.30;;;;;;;;;;6264914;28;20578;-70
2023/11/22 02:43:57;;;;;;;3.60;3.00;;;;;;;;;;6282735;28;20386;-70
2023/11/22 02:47:01;;;;;;;3.10;2.60;;;;;;;;;;6283406;28;20565;-69
2023/11/22 02:50:06;;;;;;;2.97;2.63;;;;;;;;;;6263593;28;20286;-72
2023/11/22 02:53:10;;;;;;;2.77;2.53;;;;;;;;;;6264419;28;20326;-71
2023/11/22 02:56:15;;;;;;;2.60;2.50;;;;;;;;;;6282446;28;20403;-69
2023/11/22 02:59:19;;;;;;;2.60;2.40;;;;;;;;;;6280663;28;20397;-70
2023/11/22 03:02:23;;;;;;;2.83;2.73;;;;;;;;;;6264779;28;20406;-71
2023/11/22 03:05:28;;;;;;;2.70;2.50;;;;;;;;;;6282006;28;20440;-70
2023/11/22 03:08:32;;;;;;;2.47;2.37;;;;;;;;;;6296945;28;20388;-70
2023/11/22 03:11:38;;;;;;;3.03;2.40;;;;;;;;;;6282284;28;20593;-70
2023/11/22 03:14:42;;;;;;;2.70;2.60;;;;;;;;;;6255303;28;20470;-69
2023/11/22 03:17:48;;;;;;;2.67;2.57;;;;;;;;;;6294675;28;20333;-70
2023/11/22 03:20:54;;;;;;;2.90;2.43;;;;;;;;;;6264193;28;20304;-70
2023/11/22 03:24:00;;;;;;;3.17;2.97;;;;;;;;;;6263372;28;20248;-71
2023/11/22 03:27:06;;;;;;;3.13;2.77;;;;;;;;;;6265813;28;20291;-69
2023/11/22 03:30:11;;;;;;;4.00;2.60;;;;;;;;;;6289140;28;20287;-70
2023/11/22 03:33:15;;;;;;;3.63;2.67;;;;;;;;;;6281212;28;20556;-71
2023/11/22 03:36:19;;;;;;;2.77;2.60;;;;;;;;;;6263798;28;20284;-70
2023/11/22 03:39:23;;;;;;;2.90;2.70;;;;;;;;;;6296509;28;20260;-70
2023/11/22 03:42:29;;;;;;;2.90;2.67;;;;;;;;;;6281360;28;20294;-71
2023/11/22 03:45:32;;;;;;;14.97;8.73;;;;;;;;;;6282208;28;20318;-70
2023/11/22 03:48:37;;;;;;;4.03;3.70;;;;;;;;;;6263966;28;20294;-70
2023/11/22 03:51:43;;;;;;;3.23;3.07;;;;;;;;;;6282095;28;20815;-70
2023/11/22 03:54:46;;;;;;;2.97;2.83;;;;;;;;;;6281381;28;20378;-70
2023/11/22 03:57:51;;;;;;;3.23;3.03;;;;;;;;;;6276838;28;20308;-70
2023/11/22 04:00:55;;;;;;;2.87;2.67;;;;;;;;;;6289579;28;20236;-71
2023/11/22 04:03:59;;;;;;;3.40;3.20;;;;;;;;;;6278302;28;20304;-70
2023/11/22 04:07:03;;;;;;;2.70;2.70;;;;;;;;;;6263129;28;20287;-70
2023/11/22 04:10:07;;;;;;;2.73;2.63;;;;;;;;;;6286557;28;20343;-71
2023/11/22 04:13:12;;;;;;;3.33;2.80;;;;;;;;;;6286222;28;20301;-71
2023/11/22 04:16:17;;;;;;;2.93;2.83;;;;;;;;;;6281411;28;20377;-70
2023/11/22 04:19:21;;;;;;;2.50;2.40;;;;;;;;;;6295767;28;20334;-71
2023/11/22 04:22:24;;;;;;;2.77;2.57;;;;;;;;;;6279398;28;20303;-72
2023/11/22 04:25:29;;;;;;;2.63;2.43;;;;;;;;;;6280633;28;20318;-71
2023/11/22 04:28:34;;;;;;;2.73;2.63;;;;;;;;;;6280552;28;20572;-71
2023/11/22 04:31:38;;;;;;;2.70;2.60;;;;;;;;;;6278231;28;20309;-72
2023/11/22 04:34:42;;;;;;;2.70;2.60;;;;;;;;;;6285215;28;20302;-71
2023/11/22 04:37:46;;;;;;;3.03;2.90;;;;;;;;;;6287454;28;20299;-70
2023/11/22 04:40:50;;;;;;;3.13;2.93;;;;;;;;;;6278308;28;20592;-70
2023/11/22 04:43:56;;;;;;;2.33;2.33;;;;;;;;;;6286474;28;20306;-70
2023/11/22 04:46:59;;;;;;;3.40;2.87;;;;;;;;;;6258508;28;20413;-70
2023/11/22 04:50:04;;;;;;;5.07;2.53;;;;;;;;;;6280041;28;20288;-70
2023/11/22 04:53:08;;;;;;;1.90;1.80;;;;;;;;;;6279594;28;20302;-69
2023/11/22 04:56:12;;;;;;;1.90;1.80;;;;;;;;;;6279755;28;20615;-70
2023/11/22 04:59:18;;;;;;;1.90;1.90;;;;;;;;;;6249639;28;20223;-70
2023/11/22 05:02:21;;;;;;;1.93;1.93;;;;;;;;;;6294853;28;20291;-70
2023/11/22 05:05:25;;;;;;;2.07;1.97;;;;;;;;;;6279553;28;20299;-71
2023/11/22 05:08:30;;;;;;;2.00;2.00;;;;;;;;;;6284827;28;20322;-70
2023/11/22 05:11:34;;;;;;;1.80;1.80;;;;;;;;;;6269898;28;20533;-71
2023/11/22 05:14:39;;;;;;;1.90;1.73;;;;;;;;;;6278015;28;20292;-70
2023/11/22 05:17:43;;;;;;;2.33;2.13;;;;;;;;;;6279199;28;20311;-71
2023/11/22 05:20:48;;;;;;;2.40;2.40;;;;;;;;;;6279621;28;20304;-70
2023/11/22 05:23:53;;;;;;;2.30;2.30;;;;;;;;;;6279001;28;20327;-71
2023/11/22 05:26:56;;;;;;;2.53;2.43;;;;;;;;;;6278992;28;20548;-71
2023/11/22 05:30:01;;;;;;;2.30;2.30;;;;;;;;;;6279624;28;20306;-72
2023/11/22 05:33:05;;;;;;;3.00;2.37;;;;;;;;;;6278863;28;20286;-70
2023/11/22 05:36:11;;;;;;;2.50;2.40;;;;;;;;;;6279549;28;20291;-71
2023/11/22 05:39:15;;;;;;;2.43;2.33;;;;;;;;;;6266499;28;20454;-71
2023/11/22 05:42:20;;;;;;;2.87;2.50;;;;;;;;;;6257716;28;20291;-71
2023/11/22 05:45:26;;;;;;;2.27;2.17;;;;;;;;;;6278561;28;20287;-70
2023/11/22 05:48:30;;;;;;;2.77;2.63;;;;;;;;;;6278328;28;20354;-69
2023/11/22 05:51:34;;;;;;;2.50;2.30;;;;;;;;;;6278684;28;20321;-69
2023/11/22 05:54:38;;;;;;;2.30;2.20;;;;;;;;;;6278328;28;20294;-71
2023/11/22 05:57:42;;;;;;;2.43;2.03;;;;;;;;;;6278482;28;20298;-74
2023/11/22 06:00:48;;;;;;;2.47;2.23;;;;;;;;;;6278504;28;20326;-73
2023/11/22 06:03:51;;;;;;;2.33;2.23;;;;;;;;;;6277176;28;20302;-71
2023/11/22 06:06:55;;;;;;;3.50;2.60;;;;;;;;;;6261482;28;20315;-69
2023/11/22 06:09:59;;;;;;;3.87;2.73;;;;;;;;;;6278737;28;20314;-71
2023/11/22 06:13:03;;;;;;;2.77;2.67;;;;;;;;;;6278470;28;20298;-71
2023/11/22 06:16:09;;;;;;;2.93;2.70;;;;;;;;;;6278664;28;20302;-73
2023/11/22 06:19:12;;;;;;;2.90;2.50;;;;;;;;;;6278215;28;20816;-70
2023/11/22 06:22:16;;;;;;;2.67;2.50;;;;;;;;;;6278707;28;20234;-70
2023/11/22 06:25:20;;;;;;;2.57;2.50;;;;;;;;;;6278192;28;20317;-69
2023/11/22 06:28:24;;;;;;;2.70;2.70;;;;;;;;;;6277887;28;20303;-71
2023/11/22 06:31:29;;;;;;;2.87;2.77;;;;;;;;;;6279027;28;20587;-70
2023/11/22 06:34:33;;;;;;;2.87;2.63;;;;;;;;;;6278135;28;20303;-70
2023/11/22 06:37:40;;;;;;;2.70;2.53;;;;;;;;;;6277921;28;20406;-71
2023/11/22 06:40:43;;;;;;;2.60;2.50;;;;;;;;;;6278269;28;20298;-69
2023/11/22 06:43:47;;;;;;;3.00;2.90;;;;;;;;;;6275760;28;20293;-70
2023/11/22 06:46:53;;;;;;;3.47;3.27;;;;;;;;;;6286619;28;20306;-69
2023/11/22 06:49:58;;;;;;;3.30;3.20;;;;;;;;;;6277926;28;20437;-69
2023/11/22 06:53:03;;;;;;;4.23;3.60;;;;;;;;;;6277971;28;20279;-69
2023/11/22 06:56:07;;;;;;;4.40;4.00;;;;;;;;;;6277478;28;20298;-71
2023/11/22 06:59:11;;;;;;;3.87;3.33;;;;;;;;;;6257955;28;20310;-68
2023/11/22 07:02:16;;;;;;;6.20;3.87;;;;;;;;;;6277749;28;20294;-70
2023/11/22 07:05:20;;;;;;;6.23;4.47;;;;;;;;;;6277173;28;20377;-70
2023/11/22 07:08:25;;;;;;;5.30;4.03;;;;;;;;;;6282315;28;20304;-71
2023/11/22 07:11:30;;;;;;;6.07;4.17;;;;;;;;;;6282925;28;20290;-70
2023/11/22 07:14:34;;;;;;;5.03;4.63;;;;;;;;;;6281638;28;20382;-70
2023/11/22 07:17:39;;;;;;;5.73;4.10;;;;;;;;;;6281402;28;20298;-72
2023/11/22 07:20:43;;;;;;;4.73;4.20;;;;;;;;;;6282549;28;20309;-70
2023/11/22 07:23:47;;;;;;;5.10;4.63;;;;;;;;;;6282115;28;20303;-71
2023/11/22 07:26:54;;;;;;;6.10;4.00;;;;;;;;;;6282426;28;20291;-71
2023/11/22 07:29:58;;;;;;;6.30;4.90;;;;;;;;;;6281398;28;20591;-70
2023/11/22 07:33:03;;;;;;;4.83;4.43;;;;;;;;;;6281637;28;20314;-70
2023/11/22 07:36:07;;;;;;;4.97;4.57;;;;;;;;;;6282402;28;20298;-70
2023/11/22 07:39:12;;;;;;;5.20;4.80;;;;;;;;;;6281323;28;20310;-71
2023/11/22 07:42:16;;;;;;;4.77;4.37;;;;;;;;;;6281382;28;20302;-72
2023/11/22 07:45:19;;;;;;;5.17;4.00;;;;;;;;;;6281377;28;20492;-71
2023/11/22 07:48:24;;;;;;;5.53;5.00;;;;;;;;;;6281915;28;20303;-70
2023/11/22 07:51:28;;;;;;;5.67;5.00;;;;;;;;;;6281682;28;20294;-72
2023/11/22 07:54:32;;;;;;;5.63;5.07;;;;;;;;;;6279155;28;20303;-70
2023/11/22 07:57:36;;;;;;;7.67;5.03;;;;;;;;;;6280959;28;20294;-71
2023/11/22 08:00:41;;;;;;;5.87;5.13;;;;;;;;;;6278258;28;20286;-73
2023/11/22 08:03:46;;;;;;;6.67;5.57;;;;;;;;;;6262907;28;20244;-72
2023/11/22 08:06:52;;;;;;;5.97;5.37;;;;;;;;;;6279306;28;20520;-71
2023/11/22 08:09:55;;;;;;;8.87;6.10;;;;;;;;;;6275317;28;20298;-70
2023/11/22 08:12:59;;;;;;;10.43;6.07;;;;;;;;;;6280492;28;20303;-71
2023/11/22 08:16:03;;;;;;;7.03;6.07;;;;;;;;;;6280864;28;20342;-70
2023/11/22 08:19:09;;;;;;;8.40;6.20;;;;;;;;;;6261410;28;20356;-69
2023/11/22 08:22:13;;;;;;;8.23;6.40;;;;;;;;;;6280938;28;20308;-69
2023/11/22 08:25:17;;;;;;;6.80;6.00;;;;;;;;;;6295451;28;20296;-70
2023/11/22 08:28:21;;;;;;;8.07;6.50;;;;;;;;;;6280022;28;20292;-69
2023/11/22 08:31:26;;;;;;;7.60;5.83;;;;;;;;;;6280366;28;20300;-69
2023/11/22 08:34:31;;;;;;;8.53;5.90;;;;;;;;;;6280168;28;20302;-71
2023/11/22 08:37:37;;;;;;;6.87;5.73;;;;;;;;;;6280173;28;20303;-73
2023/11/22 08:40:41;;;;;;;8.57;6.73;;;;;;;;;;6280320;28;20451;-70
2023/11/22 08:43:47;;;;;;;6.20;5.70;;;;;;;;;;6279385;28;20301;-71
2023/11/22 08:46:51;;;;;;;6.23;4.93;;;;;;;;;;6279014;28;20305;-69
2023/11/22 08:49:57;;;;;;;5.77;4.90;;;;;;;;;;6279740;28;20322;-71
2023/11/22 08:53:01;;;;;;;5.07;4.73;;;;;;;;;;6285495;28;20339;-69
2023/11/22 08:56:05;;;;;;;5.43;4.90;;;;;;;;;;6280024;28;20575;-68
2023/11/22 08:59:09;;;;;;;5.97;4.03;;;;;;;;;;6278163;28;20370;-72
2023/11/22 09:02:14;;;;;;;3.93;3.73;;;;;;;;;;6279726;28;20556;-70
2023/11/22 09:05:20;;;;;;;4.10;3.80;;;;;;;;;;6279505;28;20316;-71
2023/11/22 09:08:24;;;;;;;3.57;3.40;;;;;;;;;;6279654;28;20299;-73
2023/11/22 09:11:34;;;;;;;3.90;3.70;;;;;;;;;;6285092;28;20301;-71
2023/11/22 09:14:38;;;;;;;3.33;3.23;;;;;;;;;;6279037;28;20293;-70
2023/11/22 09:17:44;;;;;;;3.27;3.17;;;;;;;;;;6279118;28;20575;-69
2023/11/22 09:20:49;;;;;;;3.03;2.93;;;;;;;;;;6279776;28;20287;-70
2023/11/22 09:23:53;;;;;;;3.10;2.90;;;;;;;;;;6278866;28;20517;-71
2023/11/22 09:26:57;;;;;;;2.77;2.77;;;;;;;;;;6279271;28;20306;-69
2023/11/22 09:30:00;;;;;;;2.60;2.60;;;;;;;;;;6278806;28;20314;-70
2023/11/22 09:33:05;;;;;;;5.23;4.53;;;;;;;;;;6279442;28;20560;-72
2023/11/22 09:36:11;;;;;;;2.20;2.10;;;;;;;;;;6279833;28;20293;-70
2023/11/22 09:39:21;;;;;;;2.10;2.10;;;;;;;;;;6280455;28;20325;-71
2023/11/22 09:42:24;;;;;;;2.73;2.53;;;;;;;;;;6255116;28;20307;-71
2023/11/22 09:45:30;;;;;;;2.30;2.20;;;;;;;;;;6272274;28;20301;-69
2023/11/22 09:48:34;;;;;;;2.17;2.17;;;;;;;;;;6278974;28;20580;-70
2023/11/22 09:51:42;;;;;;;2.10;2.10;;;;;;;;;;6279284;28;20286;-69
2023/11/22 09:54:46;;;;;;;1.90;1.80;;;;;;;;;;6278530;28;20295;-71
2023/11/22 09:57:51;;;;;;;1.70;1.70;;;;;;;;;;6278999;28;20306;-70
2023/11/22 10:00:57;;;;;;;2.07;1.97;;;;;;;;;;6277536;28;20302;-69
2023/11/22 10:04:01;;;;;;;2.03;2.03;;;;;;;;;;6278088;28;20253;-73
2023/11/22 10:07:06;;;;;;;2.20;1.93;;;;;;;;;;6279155;28;20294;-71
2023/11/22 10:10:11;;;;;;;2.30;2.27;;;;;;;;;;6293492;28;20312;-73
2023/11/22 10:13:14;;;;;;;2.20;2.20;;;;;;;;;;6278583;28;20297;-71
2023/11/22 10:16:20;;;;;;;2.70;2.60;;;;;;;;;;6278498;28;20354;-71
2023/11/22 10:19:25;;;;;;;2.13;2.13;;;;;;;;;;6278371;28;20286;-69
2023/11/22 10:22:30;;;;;;;2.20;2.10;;;;;;;;;;6277781;28;20318;-71
2023/11/22 10:25:33;;;;;;;2.27;2.20;;;;;;;;;;6279151;28;20297;-70
2023/11/22 10:28:37;;;;;;;2.27;2.17;;;;;;;;;;6278391;28;20405;-70
2023/11/22 10:31:41;;;;;;;2.47;2.30;;;;;;;;;;6278942;28;20295;-70
2023/11/22 10:34:45;;;;;;;2.33;2.23;;;;;;;;;;6278314;28;20311;-69
2023/11/22 10:37:50;;;;;;;2.20;2.20;;;;;;;;;;6278557;28;20287;-71
2023/11/22 10:40:57;;;;;;;2.23;2.23;;;;;;;;;;6279487;28;20762;-70
2023/11/22 10:44:03;;;;;;;2.40;2.20;;;;;;;;;;6282831;28;20355;-71
2023/11/22 10:47:08;;;;;;;2.27;2.10;;;;;;;;;;6274744;28;20322;-71
2023/11/22 10:50:12;;;;;;;2.90;2.67;;;;;;;;;;6282797;28;20298;-71
2023/11/22 10:53:22;;;;;;;3.00;2.90;;;;;;;;;;6282948;28;20313;-72
2023/11/22 10:56:28;;;;;;;2.90;2.80;;;;;;;;;;6282128;28;20297;-71
2023/11/22 10:59:32;;;;;;;3.37;3.17;;;;;;;;;;6281197;28;20468;-70
2023/11/22 11:02:46;;;;;;;3.30;3.10;;;;;;;;;;6282321;28;20302;-70
2023/11/22 11:05:52;;;;;;;4.83;3.10;;;;;;;;;;6278777;28;20313;-69
2023/11/22 11:09:00;;;;;;;4.07;3.50;;;;;;;;;;6282542;28;20302;-70
2023/11/22 11:12:06;;;;;;;3.40;3.10;;;;;;;;;;6283309;28;20606;-73
2023/11/22 11:15:12;;;;;;;5.70;3.30;;;;;;;;;;6272830;28;20309;-71
2023/11/22 11:18:17;;;;;;;3.33;3.23;;;;;;;;;;6274418;28;20302;-74
2023/11/22 11:21:20;;;;;;;3.80;3.60;;;;;;;;;;6288312;28;20299;-69
2023/11/22 11:24:27;;;;;;;6.10;3.40;;;;;;;;;;6264767;28;20285;-72
2023/11/22 11:27:30;;;;;;;3.70;3.50;;;;;;;;;;6287253;28;20306;-70
2023/11/22 11:30:48;;;;;;;3.43;3.33;;;;;;;;;;6282508;28;20291;-73
2023/11/22 11:33:56;;;;;;;4.50;3.93;;;;;;;;;;6282081;28;20647;-73
2023/11/22 11:37:00;;;;;;;3.57;3.37;;;;;;;;;;6273273;28;20310;-70
2023/11/22 11:40:26;;;;;;;4.10;3.73;;;;;;;;;;6281668;28;20294;-72
2023/11/22 11:43:40;;;;;;;3.70;3.37;;;;;;;;;;6279631;28;20553;-70
2023/11/22 11:46:45;;;;;;;5.83;3.23;;;;;;;;;;6282462;28;20303;-69
2023/11/22 11:49:50;;;;;;;3.90;3.57;;;;;;;;;;6281626;28;20611;-71
2023/11/22 11:52:54;;;;;;;3.57;3.40;;;;;;;;;;6281253;28;20299;-68
2023/11/22 11:56:00;;;;;;;3.63;3.43;;;;;;;;;;6282697;28;20630;-70
2023/11/22 11:59:04;;;;;;;3.50;3.30;;;;;;;;;;6280140;28;20306;-70
2023/11/22 12:02:08;;;;;;;3.40;3.30;;;;;;;;;;6282532;28;20310;-69
2023/11/22 12:05:12;;;;;;;3.30;3.10;;;;;;;;;;6281346;28;20302;-71
2023/11/22 12:08:17;;;;;;;3.37;2.97;;;;;;;;;;6281351;28;20372;-70
2023/11/22 12:11:22;;;;;;;3.20;3.10;;;;;;;;;;6282055;28;20498;-69
2023/11/22 12:14:26;;;;;;;3.50;2.97;;;;;;;;;;6281255;28;20374;-70
2023/11/22 12:17:30;;;;;;;3.47;3.27;;;;;;;;;;6280963;28;20291;-69
2023/11/22 12:20:35;;;;;;;5.27;3.47;;;;;;;;;;6281773;28;20299;-70
2023/11/22 12:23:39;;;;;;;3.20;2.87;;;;;;;;;;6281301;28;20307;-70
2023/11/22 12:26:48;;;;;;;3.13;2.93;;;;;;;;;;6281161;28;20319;-70
2023/11/22 12:29:52;;;;;;;3.37;3.20;;;;;;;;;;6280739;28;20587;-70
2023/11/22 12:32:56;;;;;;;3.40;3.20;;;;;;;;;;6280724;28;20507;-70
2023/11/22 12:35:59;;;;;;;7.27;2.90;;;;;;;;;;6286145;28;20302;-70
2023/11/22 12:39:04;;;;;;;3.00;2.90;;;;;;;;;;6286083;28;20303;-70
2023/11/22 12:42:09;;;;;;;3.00;2.90;;;;;;;;;;6282635;28;20303;-70
2023/11/22 12:45:20;;;;;;;2.80;2.70;;;;;;;;;;6280240;28;20304;-70
2023/11/22 12:48:24;;;;;;;3.17;2.90;;;;;;;;;;6279772;28;20323;-70
2023/11/22 12:51:29;;;;;;;2.93;2.73;;;;;;;;;;6295618;28;20453;-70
2023/11/22 12:54:35;;;;;;;2.93;2.73;;;;;;;;;;6280283;28;20295;-69
2023/11/22 12:57:40;;;;;;;4.40;2.90;;;;;;;;;;6255508;28;20300;-70
2023/11/22 13:00:45;;;;;;;2.30;2.30;;;;;;;;;;6262798;28;20291;-69
2023/11/22 13:03:49;;;;;;;2.40;2.40;;;;;;;;;;6278721;28;20308;-70
2023/11/22 13:06:53;;;;;;;3.03;2.57;;;;;;;;;;6280099;28;20482;-70
2023/11/22 13:09:57;;;;;;;2.53;2.43;;;;;;;;;;6280276;28;20297;-71
2023/11/22 13:13:02;;;;;;;2.40;2.40;;;;;;;;;;6280064;28;20302;-73
2023/11/22 13:16:06;;;;;;;2.87;2.67;;;;;;;;;;6280075;28;20305;-71
2023/11/22 13:19:10;;;;;;;2.97;2.77;;;;;;;;;;6279661;28;20330;-71
2023/11/22 13:22:14;;;;;;;2.80;2.70;;;;;;;;;;6279454;28;20314;-71
2023/11/22 13:25:19;;;;;;;2.87;2.77;;;;;;;;;;6278588;28;20353;-72
2023/11/22 13:28:25;;;;;;;3.00;2.80;;;;;;;;;;6278750;28;20297;-70
2023/11/22 13:31:29;;;;;;;3.50;3.20;;;;;;;;;;6279468;28;20297;-71
2023/11/22 13:34:33;;;;;;;2.97;2.77;;;;;;;;;;6278868;28;20296;-70
2023/11/22 13:37:36;;;;;;;2.93;2.83;;;;;;;;;;6293712;28;20324;-70
2023/11/22 13:40:41;;;;;;;2.73;2.63;;;;;;;;;;6279036;28;20324;-70
2023/11/22 13:43:46;;;;;;;2.90;2.80;;;;;;;;;;6278845;28;20304;-71
2023/11/22 13:46:50;;;;;;;2.80;2.70;;;;;;;;;;6278966;28;20484;-71
2023/11/22 13:49:54;;;;;;;3.60;2.70;;;;;;;;;;6278598;28;20374;-70
2023/11/22 13:52:58;;;;;;;2.50;2.40;;;;;;;;;;6254029;28;20304;-70
2023/11/22 13:56:08;;;;;;;2.50;2.40;;;;;;;;;;6263622;28;20290;-71
2023/11/22 13:59:13;;;;;;;2.93;2.87;;;;;;;;;;6277219;28;20297;-71
2023/11/22 14:02:17;;;;;;;2.60;2.50;;;;;;;;;;6279588;28;20308;-70
2023/11/22 14:05:21;;;;;;;2.63;2.63;;;;;;;;;;6278162;28;20300;-69
2023/11/22 14:08:25;;;;;;;2.80;2.70;;;;;;;;;;6278803;28;20299;-71
2023/11/22 14:11:29;;;;;;;2.90;2.80;;;;;;;;;;6279012;28;20612;-70
2023/11/22 14:14:34;;;;;;;2.63;2.50;;;;;;;;;;6278446;28;20286;-70
2023/11/22 14:17:39;;;;;;;2.47;2.43;;;;;;;;;;6282484;28;20309;-70
2023/11/22 14:20:43;;;;;;;2.27;2.17;;;;;;;;;;6284495;28;20287;-70
2023/11/22 14:23:47;;;;;;;2.70;2.60;;;;;;;;;;6283880;28;20305;-70
2023/11/22 14:26:51;;;;;;;2.73;2.50;;;;;;;;;;6283630;28;20308;-70
2023/11/22 14:29:56;;;;;;;2.97;2.70;;;;;;;;;;6280150;28;20304;-70
2023/11/22 14:33:00;;;;;;;2.20;2.20;;;;;;;;;;6283421;28;20302;-70
2023/11/22 14:36:04;;;;;;;2.50;2.40;;;;;;;;;;6283983;28;20325;-71
2023/11/22 14:39:11;;;;;;;2.40;2.30;;;;;;;;;;6283539;28;20316;-70
2023/11/22 14:42:15;;;;;;;2.60;2.40;;;;;;;;;;6274347;28;20381;-70
2023/11/22 14:45:21;;;;;;;3.33;2.20;;;;;;;;;;6282424;28;20310;-71
2023/11/22 14:48:26;;;;;;;2.50;2.40;;;;;;;;;;6283239;28;20332;-69
2023/11/22 14:51:30;;;;;;;2.27;2.27;;;;;;;;;;6283532;28;20302;-70
2023/11/22 14:54:34;;;;;;;2.40;2.37;;;;;;;;;;6283251;28;20319;-70
2023/11/22 14:57:37;;;;;;;1.90;1.90;;;;;;;;;;6283328;28;20304;-71
2023/11/22 15:00:43;;;;;;;2.10;1.80;;;;;;;;;;6281645;28;20488;-70
2023/11/22 15:03:48;;;;;;;2.40;2.30;;;;;;;;;;6282808;28;20330;-70
2023/11/22 15:06:52;;;;;;;2.90;2.10;;;;;;;;;;6282674;28;20317;-69
2023/11/22 15:09:56;;;;;;;2.27;2.20;;;;;;;;;;6282688;28;20337;-70
2023/11/22 15:13:00;;;;;;;2.13;2.03;;;;;;;;;;6282835;28;20304;-70
2023/11/22 15:16:06;;;;;;;1.80;1.80;;;;;;;;;;6283042;28;20305;-69
2023/11/22 15:19:10;;;;;;;1.70;1.70;;;;;;;;;;6283020;28;20295;-69
2023/11/22 15:22:14;;;;;;;1.67;1.57;;;;;;;;;;6283812;28;20309;-70
2023/11/22 15:25:18;;;;;;;2.00;2.00;;;;;;;;;;6282174;28;20308;-70
2023/11/22 15:28:22;;;;;;;2.10;2.00;;;;;;;;;;6281318;28;20229;-69
2023/11/22 15:31:28;;;;;;;2.17;2.07;;;;;;;;;;6281471;28;20492;-71
2023/11/22 15:34:32;;;;;;;2.10;2.10;;;;;;;;;;6282552;28;21122;-69
2023/11/22 15:37:35;;;;;;;2.20;2.07;;;;;;;;;;6280123;28;20489;-72
2023/11/22 15:40:39;;;;;;;2.03;1.97;;;;;;;;;;6279386;28;20386;-71
2023/11/22 15:43:43;;;;;;;2.27;2.10;;;;;;;;;;6264457;28;20305;-70
2023/11/22 15:46:48;;;;;;;1.80;1.80;;;;;;;;;;6282166;28;20305;-71
2023/11/22 15:49:53;;;;;;;1.87;1.87;;;;;;;;;;6281785;28;20632;-71
2023/11/22 15:52:57;;;;;;;1.87;1.80;;;;;;;;;;6281714;28;20301;-73
2023/11/22 15:56:00;;;;;;;2.03;1.93;;;;;;;;;;6282151;28;20288;-69
2023/11/22 15:59:04;;;;;;;2.00;1.90;;;;;;;;;;6280035;28;20298;-70
2023/11/22 16:02:09;;;;;;;1.93;1.93;;;;;;;;;;6281965;28;20302;-70
2023/11/22 16:05:13;;;;;;;1.70;1.60;;;;;;;;;;6281011;28;20324;-70
2023/11/22 16:08:17;;;;;;;1.80;1.80;;;;;;;;;;6281611;28;20333;-70
2023/11/22 16:11:21;;;;;;;2.60;1.50;;;;;;;;;;6281919;28;20298;-70
2023/11/22 16:14:25;;;;;;;1.83;1.73;;;;;;;;;;6281245;28;20305;-70
2023/11/22 16:17:31;;;;;;;2.00;1.80;;;;;;;;;;6263248;28;20306;-70
2023/11/22 16:20:35;;;;;;;1.83;1.73;;;;;;;;;;6281522;28;20286;-70
2023/11/22 16:23:39;;;;;;;1.90;1.63;;;;;;;;;;6281136;28;20502;-70
2023/11/22 16:26:43;;;;;;;1.57;1.57;;;;;;;;;;6287087;28;20316;-71
2023/11/22 16:29:50;;;;;;;1.63;1.63;;;;;;;;;;6281286;28;20304;-71
2023/11/22 16:32:56;;;;;;;1.60;1.60;;;;;;;;;;6281157;28;20297;-71
2023/11/22 16:36:00;;;;;;;1.50;1.50;;;;;;;;;;6262767;28;20745;-70
2023/11/22 16:39:06;;;;;;;1.40;1.40;;;;;;;;;;6279228;28;20304;-71
2023/11/22 16:42:23;;;;;;;1.70;1.70;;;;;;;;;;6280324;28;20339;-71
2023/11/22 16:45:27;;;;;;;1.80;1.70;;;;;;;;;;6280427;28;20294;-69
2023/11/22 16:48:32;;;;;;;2.10;1.60;;;;;;;;;;6285318;28;20239;-71
2023/11/22 16:51:35;;;;;;;1.57;1.50;;;;;;;;;;6280533;28;20289;-70
2023/11/22 16:54:40;;;;;;;1.67;1.67;;;;;;;;;;6280521;28;20464;-71
2023/11/22 16:57:43;;;;;;;1.60;1.60;;;;;;;;;;6280390;28;20307;-70
2023/11/22 17:00:48;;;;;;;2.00;1.83;;;;;;;;;;6278718;28;20293;-71
2023/11/22 17:03:54;;;;;;;1.50;1.50;;;;;;;;;;6279895;28;20325;-71
2023/11/22 17:06:58;;;;;;;1.60;1.60;;;;;;;;;;6280110;28;20456;-70
2023/11/22 17:10:02;;;;;;;1.97;1.87;;;;;;;;;;6279584;28;20291;-70
2023/11/22 17:13:06;;;;;;;1.87;1.70;;;;;;;;;;6279893;28;20289;-70
2023/11/22 17:16:10;;;;;;;1.40;1.40;;;;;;;;;;6252840;28;20264;-70
2023/11/22 17:19:16;;;;;;;1.43;1.43;;;;;;;;;;6280144;28;20300;-70
2023/11/22 17:22:19;;;;;;;1.43;1.43;;;;;;;;;;6280246;28;20294;-70
2023/11/22 17:25:23;;;;;;;1.50;1.50;;;;;;;;;;6279570;28;20309;-70
2023/11/22 17:28:27;;;;;;;1.43;1.43;;;;;;;;;;6279306;28;20301;-70
2023/11/22 17:31:31;;;;;;;1.50;1.50;;;;;;;;;;6262071;28;20286;-69
2023/11/22 17:34:36;;;;;;;1.93;1.93;;;;;;;;;;6279858;28;20305;-71
2023/11/22 17:37:40;;;;;;;1.60;1.60;;;;;;;;;;6279378;28;20321;-70
2023/11/22 17:40:43;;;;;;;1.70;1.50;;;;;;;;;;6279387;28;20290;-69
2023/11/22 17:43:47;;;;;;;1.70;1.60;;;;;;;;;;6279113;28;20303;-70
2023/11/22 17:46:52;;;;;;;1.43;1.43;;;;;;;;;;6279461;28;20297;-70
2023/11/22 17:49:58;;;;;;;2.03;1.80;;;;;;;;;;6278679;28;20298;-71
2023/11/22 17:53:02;;;;;;;1.60;1.60;;;;;;;;;;6278781;28;20296;-70
2023/11/22 17:56:06;;;;;;;1.50;1.40;;;;;;;;;;6279519;28;20315;-70
2023/11/22 17:59:11;;;;;;;1.87;1.50;;;;;;;;;;6277237;28;20303;-69
2023/11/22 18:02:14;;;;;;;1.40;1.40;;;;;;;;;;6279256;28;20297;-69
2023/11/22 18:05:36;;;;;;;1.83;1.60;;;;;;;;;;6278178;28;20301;-69
2023/11/22 18:08:40;;;;;;;2.10;2.00;;;;;;;;;;6278686;28;20302;-72
2023/11/22 18:11:44;;;;;;;1.70;1.70;;;;;;;;;;6279481;28;20294;-71
2023/11/22 18:14:48;;;;;;;1.60;1.60;;;;;;;;;;6276645;28;20321;-69
2023/11/22 18:17:52;;;;;;;1.53;1.53;;;;;;;;;;6286839;28;20494;-70
2023/11/22 18:20:57;;;;;;;1.80;1.33;;;;;;;;;;6279469;28;20288;-71
2023/11/22 18:24:03;;;;;;;1.60;1.50;;;;;;;;;;6279516;28;20590;-69
2023/11/22 18:27:07;;;;;;;1.40;1.40;;;;;;;;;;6279749;28;20504;-70